Moline, Illinois
Current Conditions -  °F | °C
As of 7:52 PM on Saturday 22 Nov 2014 (Local Time) from KMLI Reporting Station
Overcast Overcast  
Wind Chill: 55°   Ceiling: 2800
Heat Index: 55°   Visibility: 10mi
Dew Point: 48°   Wind: 12mph
Humidity: 77%   Direction: 190°S
Pressure: 29.78"   Gusts: NA
Location:  41.49°N, 90.49°W
Report Text: KMLI 230152Z 19010KT 10SM BKN028 OVC039 13/09 A2978 RMK AO2 SLP087 T01280089 $
Loading
Personal Weather Stations






























Interactive Weather Map New forecast layout! Learn more

10-Day Weather Forecast

Advertisements
Track Severe Weather on mobile